Hagatna, GU (96910)

10:19 AM ChST on June 24, 2017 (GMT +1000)
Maite | | Change Station

Elev 140 ft 13.48 °N, 144.76 °E | Updated 17 seconds ago

Partly Cloudy
Partly Cloudy
86.8 °F
Feels Like 100 °F
N
4.0
Wind Variable Wind from SE
Gusts 8.0 mph

Today
High -- | Low -- °F
--% Chance of Precip.
Yesterday
High -- | Low -- °F
Precip. -- in
Pressure 29.83 in
Visibility 10.0 miles
Clouds Scattered Clouds 1800 ft
Heat Index 100 °F
Dew Point 78 °F
Humidity 75%
Rainfall 0.49 in
Snow Depth Not available.
5:55 AM 6:51 PM
Waning Crescent, 0% visible
METAR PGUM 232354Z 10009KT 10SM SCT018 31/26 A2985 RMK AO2 SLP101 60007 T03060256 10306 20250 50003 $
Pressure 29.83 in
Visibility 10.0 miles
Clouds Scattered Clouds 1800 ft
Heat Index 100 °F
Dew Point 78 °F
Humidity 75%
Rainfall 0.49 in
Snow Depth Not available.
5:55 AM 6:51 PM
Waning Crescent, 0% visible
METAR PGUM 232354Z 10009KT 10SM SCT018 31/26 A2985 RMK AO2 SLP101 60007 T03060256 10306 20250 50003 $

Get Severe Weather Alerts

Thanks for signing up!

Be on the lookout for a verification email in your inbox.

You'll start receiving the daily forecast at 6 AM.

×

10-Day Weather Forecast

Almanac

Astronomy

Jun. 24, 2017 Rise Set
Actual Time
Civil Twilight
Nautical Twilight
Astronomical Twilight
Moon
Length of Visible Light
Length of Day
Tomorrow will be .
, % of the Moon is Illuminated

Today's Extremes

State Highs State Lows

Community

WunderPhotos

Category 6

Welcome to Category 6. This is the collective home for Weather Underground's featured writeups by Dr. Jeff Masters (right), Bob Henson (left), Chris Burt, and other regular contributors.

Nearby

Air Quality

  Air Quality AQ Index Pollutant
Not available.

Snow Depth

Station Depth Elevation

Earthquake Activity

City Distance Mag. Time & Date
Minimum magnitude displayed is 2.5.

Coastal Water Temperatures

Place Temperature

Stations

Nearby Weather Stations

Station Location Temp. Windchill Dew Point Humidity Wind Precip. Elev Updated Type
                   

Watches & Warnings

There are currently no watches in effect.